Time;durP1;ratioP1;P1;durP2;ratioP2;P2;SDS_P1;SDS_P2;PMS_P1;PMS_P2;Temp;Humidity;BMP_temperature;BMP_pressure;BME280_temperature;BME280_humidity;BME280_pressure;Samples;Min_cycle;Max_cycle;Signal;HPM_P1;HPM_P2
2021/09/19 00:00:50;;;;;;;10.52;9.55;;;;;;;;;;5110479;28;20127;-64
2021/09/19 00:03:35;;;;;;;9.32;8.38;;;;;;;;;;5096179;28;20127;-64
2021/09/19 00:06:21;;;;;;;10.15;9.18;;;;;;;;;;5094222;28;20409;-63
2021/09/19 00:09:06;;;;;;;9.63;8.73;;;;;;;;;;5086228;28;20126;-64
2021/09/19 00:11:51;;;;;;;10.50;9.45;;;;;;;;;;5094840;28;20048;-63
2021/09/19 00:14:37;;;;;;;9.65;8.73;;;;;;;;;;5094431;28;20401;-63
2021/09/19 00:17:22;;;;;;;9.75;8.73;;;;;;;;;;5100605;28;20126;-63
2021/09/19 00:20:08;;;;;;;9.32;8.50;;;;;;;;;;5110375;28;20055;-63
2021/09/19 00:22:52;;;;;;;11.18;8.35;;;;;;;;;;5098696;28;20048;-63
2021/09/19 00:25:38;;;;;;;8.43;7.63;;;;;;;;;;5095959;28;20055;-63
2021/09/19 00:28:23;;;;;;;8.45;7.68;;;;;;;;;;5100586;28;20051;-63
2021/09/19 00:31:08;;;;;;;10.27;8.10;;;;;;;;;;5114795;28;20047;-63
2021/09/19 00:33:54;;;;;;;8.27;7.47;;;;;;;;;;5088716;28;20057;-63
2021/09/19 00:36:39;;;;;;;8.50;7.13;;;;;;;;;;5087098;28;20048;-64
2021/09/19 00:39:24;;;;;;;7.03;6.43;;;;;;;;;;5093713;28;20056;-64
2021/09/19 00:42:10;;;;;;;7.82;7.03;;;;;;;;;;5107433;28;20122;-63
2021/09/19 00:44:59;;;;;;;6.57;5.97;;;;;;;;;;5097173;28;20048;-63
2021/09/19 00:47:44;;;;;;;6.32;5.82;;;;;;;;;;5094202;28;20056;-64
2021/09/19 00:50:29;;;;;;;6.07;5.50;;;;;;;;;;5095440;28;20056;-63
2021/09/19 00:53:15;;;;;;;5.35;4.78;;;;;;;;;;5106242;28;20501;-63
2021/09/19 00:56:00;;;;;;;5.07;4.45;;;;;;;;;;5080376;28;20449;-64
2021/09/19 00:58:45;;;;;;;5.22;4.53;;;;;;;;;;5114267;28;20424;-63
2021/09/19 01:01:30;;;;;;;4.63;4.20;;;;;;;;;;5103062;28;20052;-63
2021/09/19 01:04:15;;;;;;;4.43;3.53;;;;;;;;;;5094509;28;20052;-62
2021/09/19 01:07:01;;;;;;;5.72;4.07;;;;;;;;;;5105198;28;20043;-63
2021/09/19 01:09:46;;;;;;;4.85;3.38;;;;;;;;;;5095367;28;20048;-63
2021/09/19 01:12:31;;;;;;;4.70;3.35;;;;;;;;;;5089712;28;20048;-63
2021/09/19 01:15:17;;;;;;;2.75;2.55;;;;;;;;;;5077486;28;20052;-63
2021/09/19 01:18:03;;;;;;;5.00;2.70;;;;;;;;;;5107263;28;20048;-63
2021/09/19 01:20:48;;;;;;;3.60;2.65;;;;;;;;;;5110942;28;20538;-63
2021/09/19 01:23:34;;;;;;;3.75;2.17;;;;;;;;;;5099118;28;20118;-63
2021/09/19 01:26:19;;;;;;;3.92;2.15;;;;;;;;;;5097418;28;20502;-64
2021/09/19 01:29:06;;;;;;;2.78;2.22;;;;;;;;;;5095932;28;20044;-63
2021/09/19 01:31:51;;;;;;;4.25;2.20;;;;;;;;;;5093149;28;20052;-62
2021/09/19 01:34:36;;;;;;;3.55;2.08;;;;;;;;;;5093791;28;20052;-63
2021/09/19 01:37:22;;;;;;;4.55;2.35;;;;;;;;;;5104974;28;20119;-63
2021/09/19 01:40:07;;;;;;;2.83;1.92;;;;;;;;;;5094640;28;20051;-63
2021/09/19 01:42:52;;;;;;;3.83;2.13;;;;;;;;;;5096142;28;20052;-63
2021/09/19 01:45:40;;;;;;;3.92;2.00;;;;;;;;;;5093735;28;20063;-63
2021/09/19 01:48:25;;;;;;;2.63;2.10;;;;;;;;;;5092937;28;20052;-63
2021/09/19 01:51:10;;;;;;;2.08;1.88;;;;;;;;;;5085493;28;20044;-63
2021/09/19 01:53:56;;;;;;;2.47;2.13;;;;;;;;;;5072467;28;20049;-63
2021/09/19 01:56:41;;;;;;;2.42;1.67;;;;;;;;;;5094958;28;20052;-63
2021/09/19 01:59:26;;;;;;;3.13;2.05;;;;;;;;;;5104078;28;20127;-63
2021/09/19 02:02:12;;;;;;;2.08;1.80;;;;;;;;;;5103866;28;20083;-63
2021/09/19 02:04:57;;;;;;;3.67;1.70;;;;;;;;;;5108521;28;20047;-63
2021/09/19 02:07:42;;;;;;;2.72;1.90;;;;;;;;;;5113137;28;20051;-63
2021/09/19 02:10:28;;;;;;;2.17;1.85;;;;;;;;;;5107148;28;20048;-63
2021/09/19 02:13:13;;;;;;;2.13;1.92;;;;;;;;;;5088005;28;20437;-63
2021/09/19 02:15:59;;;;;;;4.65;2.30;;;;;;;;;;5078777;28;20052;-63
2021/09/19 02:18:44;;;;;;;4.00;2.75;;;;;;;;;;5092277;28;20052;-63
2021/09/19 02:21:29;;;;;;;4.07;2.20;;;;;;;;;;5092284;28;20504;-63
2021/09/19 02:24:15;;;;;;;2.92;2.63;;;;;;;;;;5092183;28;20056;-63
2021/09/19 02:27:00;;;;;;;3.33;2.88;;;;;;;;;;5092279;28;20048;-63
2021/09/19 02:29:46;;;;;;;2.92;2.72;;;;;;;;;;5092365;28;20048;-63
2021/09/19 02:32:31;;;;;;;3.20;2.53;;;;;;;;;;5088086;28;20052;-63
2021/09/19 02:35:16;;;;;;;5.43;2.95;;;;;;;;;;5082825;28;20052;-63
2021/09/19 02:38:01;;;;;;;3.53;3.00;;;;;;;;;;5091177;28;20052;-63
2021/09/19 02:40:47;;;;;;;3.55;2.88;;;;;;;;;;5091579;28;20119;-63
2021/09/19 02:43:32;;;;;;;3.67;2.63;;;;;;;;;;5091527;28;20505;-63
2021/09/19 02:46:18;;;;;;;5.63;2.92;;;;;;;;;;5076443;28;20044;-63
2021/09/19 02:49:03;;;;;;;4.03;3.33;;;;;;;;;;5093042;28;20502;-63
2021/09/19 02:51:48;;;;;;;4.07;3.50;;;;;;;;;;5093340;28;20056;-63
2021/09/19 02:54:33;;;;;;;4.28;3.67;;;;;;;;;;5077701;28;20799;-63
2021/09/19 02:57:19;;;;;;;4.68;3.88;;;;;;;;;;5092429;28;20052;-64
2021/09/19 03:00:26;;;;;;;4.03;3.35;;;;;;;;;;5093383;28;20062;-63
2021/09/19 03:03:12;;;;;;;5.22;3.85;;;;;;;;;;5106292;28;20052;-64
2021/09/19 03:05:57;;;;;;;6.80;4.38;;;;;;;;;;5099451;28;20052;-63
2021/09/19 03:08:42;;;;;;;4.57;4.15;;;;;;;;;;5093082;28;20044;-63
2021/09/19 03:11:28;;;;;;;5.97;4.20;;;;;;;;;;5087345;28;20079;-64
2021/09/19 03:14:13;;;;;;;4.65;4.25;;;;;;;;;;5106211;28;20044;-63
2021/09/19 03:16:58;;;;;;;5.78;4.50;;;;;;;;;;5093258;28;20055;-63
2021/09/19 03:19:44;;;;;;;6.38;4.70;;;;;;;;;;5102387;28;20052;-63
2021/09/19 03:22:29;;;;;;;6.13;5.05;;;;;;;;;;5110697;28;20094;-63
2021/09/19 03:25:14;;;;;;;6.15;4.78;;;;;;;;;;5092514;28;20056;-63
2021/09/19 03:28:00;;;;;;;6.25;5.75;;;;;;;;;;5086626;28;20506;-63
2021/09/19 03:30:45;;;;;;;5.95;5.05;;;;;;;;;;5100621;28;20044;-63
2021/09/19 03:33:30;;;;;;;5.90;5.43;;;;;;;;;;5114029;28;20050;-63
2021/09/19 03:36:16;;;;;;;5.43;4.90;;;;;;;;;;5102758;28;20075;-63
2021/09/19 03:39:01;;;;;;;6.40;5.80;;;;;;;;;;5096559;28;20055;-63
2021/09/19 03:41:46;;;;;;;10.10;5.50;;;;;;;;;;5100813;28;20047;-63
2021/09/19 03:44:31;;;;;;;6.18;5.57;;;;;;;;;;5100284;28;20505;-63
2021/09/19 03:47:17;;;;;;;7.53;5.80;;;;;;;;;;5100110;28;20052;-63
2021/09/19 03:50:02;;;;;;;6.82;6.13;;;;;;;;;;5110592;28;20052;-63
2021/09/19 03:52:48;;;;;;;6.65;5.82;;;;;;;;;;5109008;28;20043;-64
2021/09/19 03:55:33;;;;;;;9.65;5.88;;;;;;;;;;5095204;28;20048;-63
2021/09/19 03:58:18;;;;;;;6.95;5.82;;;;;;;;;;5093846;28;20051;-63
2021/09/19 04:01:04;;;;;;;6.63;6.03;;;;;;;;;;5096229;28;20056;-63
2021/09/19 04:03:49;;;;;;;7.85;6.38;;;;;;;;;;5093717;28;20055;-63
2021/09/19 04:06:34;;;;;;;7.00;6.30;;;;;;;;;;5096096;28;20122;-63
2021/09/19 04:09:20;;;;;;;7.13;6.43;;;;;;;;;;5095180;28;20056;-63
2021/09/19 04:12:05;;;;;;;6.97;6.28;;;;;;;;;;5097218;28;20503;-63
2021/09/19 04:14:50;;;;;;;7.18;6.50;;;;;;;;;;5094300;28;20052;-62
2021/09/19 04:17:36;;;;;;;9.55;6.90;;;;;;;;;;5095528;28;20456;-64
2021/09/19 04:20:22;;;;;;;8.05;7.07;;;;;;;;;;5087385;28;20053;-63
2021/09/19 04:23:08;;;;;;;10.05;7.15;;;;;;;;;;5099281;28;20051;-63
2021/09/19 04:25:53;;;;;;;9.57;6.57;;;;;;;;;;5094665;28;20048;-63
2021/09/19 04:28:38;;;;;;;7.63;6.82;;;;;;;;;;5095751;28;20056;-63
2021/09/19 04:31:23;;;;;;;7.40;6.60;;;;;;;;;;5095732;28;20052;-63
2021/09/19 04:34:09;;;;;;;7.78;6.55;;;;;;;;;;5094345;28;20122;-63
2021/09/19 04:36:54;;;;;;;7.13;6.28;;;;;;;;;;5104699;28;20052;-63
2021/09/19 04:39:40;;;;;;;10.13;6.80;;;;;;;;;;5094944;28;20116;-63
2021/09/19 04:42:27;;;;;;;7.10;6.03;;;;;;;;;;5091766;28;20048;-63
2021/09/19 04:45:12;;;;;;;8.25;6.85;;;;;;;;;;5093986;28;20464;-63
2021/09/19 04:47:57;;;;;;;8.65;6.40;;;;;;;;;;5094002;28;20048;-63
2021/09/19 04:50:43;;;;;;;8.80;6.25;;;;;;;;;;5094252;28;20048;-64
2021/09/19 04:53:28;;;;;;;8.23;5.50;;;;;;;;;;5073584;28;20052;-63
2021/09/19 04:56:13;;;;;;;6.78;5.68;;;;;;;;;;5088231;28;20048;-63
2021/09/19 04:58:58;;;;;;;8.25;6.00;;;;;;;;;;5094107;28;20048;-63
2021/09/19 05:01:44;;;;;;;7.65;5.28;;;;;;;;;;5093432;28;20048;-63
2021/09/19 05:04:29;;;;;;;8.52;5.35;;;;;;;;;;5093465;28;20051;-63
2021/09/19 05:07:15;;;;;;;7.65;5.18;;;;;;;;;;5093926;28;20429;-63
2021/09/19 05:10:00;;;;;;;11.90;5.55;;;;;;;;;;5093331;28;20052;-64
2021/09/19 05:12:46;;;;;;;6.88;5.68;;;;;;;;;;5082628;28;20446;-63
2021/09/19 05:15:31;;;;;;;6.15;5.35;;;;;;;;;;5093384;28;20048;-63
2021/09/19 05:18:16;;;;;;;6.15;4.93;;;;;;;;;;5093643;28;20056;-63
2021/09/19 05:21:02;;;;;;;10.85;5.65;;;;;;;;;;5093392;28;20060;-63
2021/09/19 05:23:48;;;;;;;7.03;5.10;;;;;;;;;;5092042;28;20493;-63
2021/09/19 05:26:33;;;;;;;5.75;4.60;;;;;;;;;;5091854;28;20044;-64
2021/09/19 05:29:18;;;;;;;7.88;5.03;;;;;;;;;;5093400;28;20043;-63
2021/09/19 05:32:04;;;;;;;7.93;4.78;;;;;;;;;;5093256;28;20123;-63
2021/09/19 05:34:49;;;;;;;8.75;4.70;;;;;;;;;;5092821;28;20043;-63
2021/09/19 05:37:34;;;;;;;5.88;4.70;;;;;;;;;;5093142;28;20056;-64
2021/09/19 05:40:20;;;;;;;10.13;5.28;;;;;;;;;;5093377;28;20123;-64
2021/09/19 05:43:05;;;;;;;6.47;5.43;;;;;;;;;;5092171;28;20052;-63
2021/09/19 05:45:50;;;;;;;6.70;5.07;;;;;;;;;;5072514;28;20502;-63
2021/09/19 05:48:36;;;;;;;8.27;4.95;;;;;;;;;;5072640;28;20076;-63
2021/09/19 05:51:21;;;;;;;7.63;4.78;;;;;;;;;;5072784;28;20123;-63
2021/09/19 05:54:07;;;;;;;7.30;5.50;;;;;;;;;;5079971;28;20048;-63
2021/09/19 05:56:52;;;;;;;7.35;5.45;;;;;;;;;;5092682;28;20053;-63
2021/09/19 05:59:37;;;;;;;7.70;5.60;;;;;;;;;;5092718;28;20452;-63
2021/09/19 06:02:22;;;;;;;6.97;5.78;;;;;;;;;;5092163;28;20040;-63
2021/09/19 06:05:08;;;;;;;6.22;5.40;;;;;;;;;;5092065;28;20425;-64
2021/09/19 06:07:53;;;;;;;8.02;5.60;;;;;;;;;;5092698;28;20048;-63
2021/09/19 06:10:38;;;;;;;7.97;5.70;;;;;;;;;;5092645;28;20066;-63
2021/09/19 06:13:23;;;;;;;7.85;6.53;;;;;;;;;;5092809;28;20048;-63
2021/09/19 06:16:09;;;;;;;11.25;7.00;;;;;;;;;;5090115;28;20406;-62
2021/09/19 06:18:54;;;;;;;8.73;6.25;;;;;;;;;;5076306;28;20542;-63
2021/09/19 06:21:39;;;;;;;9.80;6.80;;;;;;;;;;5088123;28;20426;-63
2021/09/19 06:24:25;;;;;;;8.65;6.72;;;;;;;;;;5087735;28;20052;-63
2021/09/19 06:27:13;;;;;;;8.15;5.97;;;;;;;;;;5082231;28;20550;-62
2021/09/19 06:29:58;;;;;;;7.47;6.20;;;;;;;;;;5091344;28;20510;-63
2021/09/19 06:32:44;;;;;;;6.72;5.85;;;;;;;;;;5086334;28;20039;-63
2021/09/19 06:35:29;;;;;;;9.05;6.00;;;;;;;;;;5079948;28;20111;-63
2021/09/19 06:38:14;;;;;;;10.32;7.10;;;;;;;;;;5074293;28;20057;-63
2021/09/19 06:41:00;;;;;;;7.75;6.72;;;;;;;;;;5091822;28;20056;-63
2021/09/19 06:43:45;;;;;;;11.60;7.65;;;;;;;;;;5085774;28;20162;-64
2021/09/19 06:46:31;;;;;;;8.43;6.97;;;;;;;;;;5082937;28;20059;-63
2021/09/19 06:49:17;;;;;;;9.80;6.72;;;;;;;;;;5091522;28;20052;-63
2021/09/19 06:52:02;;;;;;;8.23;6.63;;;;;;;;;;5085902;28;20044;-63
2021/09/19 06:54:47;;;;;;;9.10;6.40;;;;;;;;;;5091074;28;20082;-63
2021/09/19 06:57:33;;;;;;;8.80;6.55;;;;;;;;;;5089134;28;20052;-63
2021/09/19 07:00:18;;;;;;;7.80;6.55;;;;;;;;;;5089759;28;20056;-63
2021/09/19 07:03:03;;;;;;;7.72;6.25;;;;;;;;;;5091190;28;20509;-63
2021/09/19 07:05:49;;;;;;;10.00;7.05;;;;;;;;;;5083450;28;20048;-63
2021/09/19 07:08:34;;;;;;;8.23;6.47;;;;;;;;;;5087640;28;20048;-63
2021/09/19 07:11:19;;;;;;;11.05;6.70;;;;;;;;;;5095503;28;20094;-63
2021/09/19 07:14:05;;;;;;;11.18;7.72;;;;;;;;;;5095219;28;20048;-63
2021/09/19 07:16:50;;;;;;;10.27;7.43;;;;;;;;;;5083263;28;20053;-63
2021/09/19 07:19:35;;;;;;;8.07;6.82;;;;;;;;;;5086234;28;20052;-63
2021/09/19 07:22:21;;;;;;;10.18;7.47;;;;;;;;;;5095406;28;20242;-63
2021/09/19 07:25:06;;;;;;;9.00;6.75;;;;;;;;;;5089327;28;20115;-63
2021/09/19 07:27:51;;;;;;;8.70;6.07;;;;;;;;;;5087329;28;20044;-63
2021/09/19 07:30:37;;;;;;;9.13;7.60;;;;;;;;;;5097230;28;20119;-63
2021/09/19 07:33:22;;;;;;;8.65;7.47;;;;;;;;;;5083143;28;20422;-64
2021/09/19 07:36:08;;;;;;;10.63;6.70;;;;;;;;;;5081733;28;20049;-64
2021/09/19 07:38:53;;;;;;;8.45;7.55;;;;;;;;;;5075831;28;20052;-63
2021/09/19 07:41:39;;;;;;;11.93;8.20;;;;;;;;;;5093090;28;20413;-63
2021/09/19 07:44:24;;;;;;;8.52;7.32;;;;;;;;;;5091917;28;20477;-63
2021/09/19 07:47:09;;;;;;;8.88;6.88;;;;;;;;;;5089189;28;20091;-63
2021/09/19 07:49:54;;;;;;;10.70;7.80;;;;;;;;;;5094783;28;20048;-63
2021/09/19 07:52:40;;;;;;;8.93;8.02;;;;;;;;;;5094220;28;20048;-63
2021/09/19 07:55:27;;;;;;;15.52;8.38;;;;;;;;;;5077395;28;20131;-63
2021/09/19 07:58:13;;;;;;;9.55;7.20;;;;;;;;;;5088658;28;20047;-63
2021/09/19 08:00:58;;;;;;;8.45;7.65;;;;;;;;;;5078632;28;20048;-63
2021/09/19 08:03:43;;;;;;;8.45;6.97;;;;;;;;;;5092961;28;20498;-63
2021/09/19 08:06:29;;;;;;;8.93;7.18;;;;;;;;;;5087416;28;20119;-63
2021/09/19 08:09:14;;;;;;;9.35;7.00;;;;;;;;;;5086455;28;20394;-63
2021/09/19 08:11:59;;;;;;;9.23;7.80;;;;;;;;;;5080277;28;20056;-63
2021/09/19 08:14:45;;;;;;;12.00;7.38;;;;;;;;;;5085510;28;20048;-63
2021/09/19 08:17:30;;;;;;;8.98;7.10;;;;;;;;;;5081297;28;20516;-63
2021/09/19 08:20:16;;;;;;;10.80;6.00;;;;;;;;;;5086135;28;20044;-62
2021/09/19 08:23:01;;;;;;;10.07;6.88;;;;;;;;;;5093672;28;20522;-63
2021/09/19 08:25:47;;;;;;;8.30;6.43;;;;;;;;;;5084799;28;20041;-63
2021/09/19 08:28:32;;;;;;;9.18;6.78;;;;;;;;;;5086217;28;20494;-63
2021/09/19 08:31:17;;;;;;;7.40;6.70;;;;;;;;;;5094320;28;20044;-63
2021/09/19 08:34:03;;;;;;;6.57;5.95;;;;;;;;;;5091174;28;20057;-63
2021/09/19 08:36:48;;;;;;;8.70;6.53;;;;;;;;;;5083111;28;20120;-63
2021/09/19 08:39:33;;;;;;;6.90;6.30;;;;;;;;;;5093622;28;20048;-63
2021/09/19 08:42:20;;;;;;;7.18;6.47;;;;;;;;;;5081155;28;20127;-63
2021/09/19 08:45:06;;;;;;;6.85;6.15;;;;;;;;;;5091666;28;20131;-64
2021/09/19 08:47:51;;;;;;;9.73;6.38;;;;;;;;;;5092781;28;20044;-63
2021/09/19 08:50:36;;;;;;;7.35;5.78;;;;;;;;;;5093807;28;20044;-63
2021/09/19 08:53:24;;;;;;;7.00;6.30;;;;;;;;;;5093307;28;20595;-63
2021/09/19 08:56:10;;;;;;;9.07;6.57;;;;;;;;;;5082184;28;20518;-63
2021/09/19 08:58:55;;;;;;;8.35;6.18;;;;;;;;;;5082672;28;20044;-63
2021/09/19 09:01:59;;;;;;;7.93;5.70;;;;;;;;;;5088942;28;20123;-63
2021/09/19 09:04:44;;;;;;;8.98;6.80;;;;;;;;;;5093915;28;20118;-62
2021/09/19 09:07:30;;;;;;;8.88;5.65;;;;;;;;;;5086610;28;20493;-63
2021/09/19 09:10:15;;;;;;;5.93;5.32;;;;;;;;;;5092969;28;20122;-63
2021/09/19 09:13:01;;;;;;;6.50;5.88;;;;;;;;;;5092926;28;20052;-64
2021/09/19 09:15:50;;;;;;;7.93;6.07;;;;;;;;;;5080978;28;20048;-64
2021/09/19 09:18:45;;;;;;;6.93;5.53;;;;;;;;;;5086456;28;20535;-63
2021/09/19 09:21:30;;;;;;;6.22;5.53;;;;;;;;;;5087080;28;20137;-63
2021/09/19 09:24:16;;;;;;;7.38;5.60;;;;;;;;;;5092117;28;20091;-63
2021/09/19 09:27:02;;;;;;;7.60;6.40;;;;;;;;;;5089717;28;20052;-63
2021/09/19 09:30:06;;;;;;;7.80;6.40;;;;;;;;;;5064049;28;20048;-63
2021/09/19 09:32:52;;;;;;;8.13;5.78;;;;;;;;;;5092770;28;20222;-63
2021/09/19 09:35:40;;;;;;;6.97;6.28;;;;;;;;;;5084808;28;20079;-63
2021/09/19 09:38:25;;;;;;;6.68;6.07;;;;;;;;;;5088850;28;20494;-64
2021/09/19 09:41:10;;;;;;;6.68;5.82;;;;;;;;;;5089565;28;20450;-63
2021/09/19 09:43:55;;;;;;;6.65;5.93;;;;;;;;;;5070793;28;20051;-63
2021/09/19 09:46:50;;;;;;;7.13;5.50;;;;;;;;;;5093202;28;20464;-64
2021/09/19 09:49:42;;;;;;;6.43;5.55;;;;;;;;;;5073414;28;20045;-65
2021/09/19 09:52:27;;;;;;;8.32;5.43;;;;;;;;;;5092091;28;20094;-63
2021/09/19 09:55:13;;;;;;;6.18;4.97;;;;;;;;;;5137064;22;20052;-64
2021/09/19 09:58:21;;;;;;;6.35;5.53;;;;;;;;;;5086610;28;20048;-65
2021/09/19 10:01:06;;;;;;;6.68;5.38;;;;;;;;;;5092246;28;20056;-65
2021/09/19 10:03:52;;;;;;;6.22;4.80;;;;;;;;;;5072546;28;20489;-65
2021/09/19 10:06:37;;;;;;;5.90;5.28;;;;;;;;;;5090630;28;20501;-65
2021/09/19 10:09:22;;;;;;;6.93;5.35;;;;;;;;;;5092012;28;20044;-65
2021/09/19 10:12:07;;;;;;;5.00;4.60;;;;;;;;;;5077175;28;20048;-65
2021/09/19 10:14:53;;;;;;;4.75;4.13;;;;;;;;;;5091821;28;20086;-65
2021/09/19 10:17:38;;;;;;;4.75;4.28;;;;;;;;;;5083582;28;20087;-65
2021/09/19 10:20:40;;;;;;;5.88;3.80;;;;;;;;;;5085356;28;20502;-65
2021/09/19 10:23:26;;;;;;;4.43;4.00;;;;;;;;;;5090613;28;20048;-65
2021/09/19 10:26:13;;;;;;;5.18;4.03;;;;;;;;;;5084107;28;20048;-64
2021/09/19 10:29:01;;;;;;;4.72;3.75;;;;;;;;;;5091903;28;20421;-64
2021/09/19 10:31:46;;;;;;;4.63;4.22;;;;;;;;;;5091831;28;20040;-65
2021/09/19 10:34:35;;;;;;;4.88;4.15;;;;;;;;;;5085552;28;20052;-65
2021/09/19 10:37:25;;;;;;;4.30;3.53;;;;;;;;;;5091170;28;20052;-65
2021/09/19 10:40:10;;;;;;;5.65;4.07;;;;;;;;;;5059382;28;20486;-65
2021/09/19 10:42:56;;;;;;;5.47;3.67;;;;;;;;;;5090076;28;20044;-65
2021/09/19 10:45:42;;;;;;;4.00;3.60;;;;;;;;;;5090672;28;20043;-65
2021/09/19 10:48:28;;;;;;;3.72;3.40;;;;;;;;;;5087860;28;20417;-65
2021/09/19 10:51:13;;;;;;;5.15;3.72;;;;;;;;;;5091729;28;20048;-65
2021/09/19 10:53:59;;;;;;;6.82;4.53;;;;;;;;;;5085034;28;20040;-65
2021/09/19 10:57:02;;;;;;;4.13;3.50;;;;;;;;;;5090714;28;20058;-65
2021/09/19 11:00:05;;;;;;;4.78;3.83;;;;;;;;;;5090576;28;20447;-65
2021/09/19 11:03:01;;;;;;;4.70;3.70;;;;;;;;;;5085342;28;20071;-65
2021/09/19 11:05:50;;;;;;;5.82;3.10;;;;;;;;;;5090813;28;20060;-65
2021/09/19 11:08:39;;;;;;;5.65;3.80;;;;;;;;;;5091058;28;20449;-65
2021/09/19 11:11:25;;;;;;;4.45;3.50;;;;;;;;;;5087737;28;20052;-65
2021/09/19 11:14:12;;;;;;;7.20;3.45;;;;;;;;;;5085781;28;20239;-65
2021/09/19 11:16:57;;;;;;;3.67;3.38;;;;;;;;;;5091402;28;20090;-65
2021/09/19 11:19:42;;;;;;;4.60;3.83;;;;;;;;;;5090828;28;20498;-65
2021/09/19 11:22:27;;;;;;;3.83;3.45;;;;;;;;;;5090439;28;20079;-65
2021/09/19 11:25:13;;;;;;;6.93;3.67;;;;;;;;;;5084640;28;20052;-65
2021/09/19 11:27:58;;;;;;;5.55;4.07;;;;;;;;;;5091368;28;20123;-65
2021/09/19 11:30:44;;;;;;;5.80;3.53;;;;;;;;;;5072145;28;20048;-65
2021/09/19 11:33:31;;;;;;;4.63;4.03;;;;;;;;;;5072145;28;20048;-65
2021/09/19 11:36:16;;;;;;;7.38;3.83;;;;;;;;;;5084262;28;20052;-65
2021/09/19 11:39:02;;;;;;;5.22;4.10;;;;;;;;;;5091024;28;20071;-65
2021/09/19 11:41:48;;;;;;;4.13;3.72;;;;;;;;;;5091219;28;20056;-65
2021/09/19 11:44:33;;;;;;;3.97;3.42;;;;;;;;;;5085853;28;20044;-65
2021/09/19 11:47:20;;;;;;;5.50;3.70;;;;;;;;;;5083834;28;20048;-65
2021/09/19 11:50:06;;;;;;;3.75;3.17;;;;;;;;;;5091192;28;20056;-65
2021/09/19 11:52:52;;;;;;;3.78;3.28;;;;;;;;;;5092979;28;20079;-65
2021/09/19 11:55:44;;;;;;;3.50;2.65;;;;;;;;;;5088031;28;20048;-65
2021/09/19 11:58:29;;;;;;;3.58;2.58;;;;;;;;;;5093426;28;20111;-64
2021/09/19 12:01:14;;;;;;;4.15;2.97;;;;;;;;;;5094272;28;20044;-64
2021/09/19 12:04:04;;;;;;;2.80;2.58;;;;;;;;;;5094528;28;20173;-64
2021/09/19 12:06:49;;;;;;;3.75;3.20;;;;;;;;;;5088597;28;20040;-64
2021/09/19 12:09:34;;;;;;;5.57;3.15;;;;;;;;;;5076519;28;20048;-64
2021/09/19 12:12:19;;;;;;;6.68;3.33;;;;;;;;;;5094220;28;20048;-65
2021/09/19 12:15:05;;;;;;;3.95;2.85;;;;;;;;;;5093825;28;20052;-65
2021/09/19 12:17:58;;;;;;;6.50;3.03;;;;;;;;;;5090000;28;20505;-65
2021/09/19 12:20:55;;;;;;;4.63;2.72;;;;;;;;;;5074960;28;20448;-64
2021/09/19 12:23:44;;;;;;;5.28;3.50;;;;;;;;;;5091592;28;20079;-64
2021/09/19 12:26:30;;;;;;;3.72;2.67;;;;;;;;;;5082808;28;20047;-64
2021/09/19 12:29:16;;;;;;;2.92;2.58;;;;;;;;;;5094061;28;20048;-64
2021/09/19 12:32:02;;;;;;;4.00;2.63;;;;;;;;;;5086673;28;20056;-64
2021/09/19 12:34:47;;;;;;;2.97;2.40;;;;;;;;;;5093352;28;20045;-64
2021/09/19 12:37:36;;;;;;;3.47;2.50;;;;;;;;;;5094163;28;20052;-64
2021/09/19 12:40:22;;;;;;;6.28;2.25;;;;;;;;;;5087889;28;20059;-64
2021/09/19 12:43:11;;;;;;;3.08;2.70;;;;;;;;;;5093782;28;20127;-64
2021/09/19 12:45:56;;;;;;;3.08;2.78;;;;;;;;;;5093693;28;20126;-64
2021/09/19 12:48:42;;;;;;;3.50;2.42;;;;;;;;;;5093873;28;20048;-64
2021/09/19 12:51:27;;;;;;;3.30;2.50;;;;;;;;;;5087181;28;20048;-64
2021/09/19 12:54:24;;;;;;;4.40;2.88;;;;;;;;;;5093491;28;20047;-64
2021/09/19 12:57:09;;;;;;;4.15;2.88;;;;;;;;;;5092872;28;20048;-64
2021/09/19 12:59:55;;;;;;;3.60;2.90;;;;;;;;;;5093604;28;20472;-66
2021/09/19 13:02:40;;;;;;;5.72;3.03;;;;;;;;;;5093514;28;20497;-65
2021/09/19 13:05:25;;;;;;;4.28;2.83;;;;;;;;;;5091682;28;20461;-65
2021/09/19 13:08:11;;;;;;;4.10;2.78;;;;;;;;;;5092873;28;20048;-65
2021/09/19 13:10:56;;;;;;;3.92;2.70;;;;;;;;;;5089065;28;20051;-65
2021/09/19 13:13:41;;;;;;;3.60;2.72;;;;;;;;;;5097148;28;20056;-64
2021/09/19 13:16:27;;;;;;;3.97;2.63;;;;;;;;;;5096904;28;20052;-65
2021/09/19 13:19:12;;;;;;;2.80;2.50;;;;;;;;;;5096879;28;20052;-65
2021/09/19 13:21:58;;;;;;;3.45;2.70;;;;;;;;;;5097056;28;20052;-65
2021/09/19 13:24:43;;;;;;;5.75;2.53;;;;;;;;;;5094964;28;20092;-64
2021/09/19 13:27:29;;;;;;;2.83;2.17;;;;;;;;;;5092043;28;20048;-64
2021/09/19 13:30:14;;;;;;;4.28;2.45;;;;;;;;;;5089125;28;20048;-64
2021/09/19 13:32:59;;;;;;;2.45;2.17;;;;;;;;;;5092267;28;20047;-64
2021/09/19 13:35:45;;;;;;;4.43;2.80;;;;;;;;;;5092264;28;20039;-65
2021/09/19 13:38:30;;;;;;;5.53;2.92;;;;;;;;;;5092473;28;20578;-65
2021/09/19 13:41:15;;;;;;;5.88;2.92;;;;;;;;;;5092333;28;20432;-64
2021/09/19 13:44:01;;;;;;;3.85;3.00;;;;;;;;;;5091580;28;20056;-64
2021/09/19 13:46:46;;;;;;;3.65;3.28;;;;;;;;;;5092434;28;20504;-64
2021/09/19 13:49:32;;;;;;;4.53;3.03;;;;;;;;;;5087002;28;20052;-64
2021/09/19 13:52:17;;;;;;;4.63;3.15;;;;;;;;;;5092623;28;20053;-64
2021/09/19 13:55:02;;;;;;;5.38;2.83;;;;;;;;;;5092142;28;20044;-65
2021/09/19 13:57:49;;;;;;;4.45;3.20;;;;;;;;;;5091896;28;20040;-65
2021/09/19 14:00:34;;;;;;;3.10;2.80;;;;;;;;;;5092340;28;20497;-65
2021/09/19 14:03:19;;;;;;;4.47;3.22;;;;;;;;;;5084890;28;20048;-65
2021/09/19 14:06:04;;;;;;;2.72;2.50;;;;;;;;;;5092384;28;20119;-64
2021/09/19 14:08:49;;;;;;;4.30;3.05;;;;;;;;;;5088355;28;20052;-64
2021/09/19 14:11:37;;;;;;;4.38;2.90;;;;;;;;;;5091999;28;20493;-64
2021/09/19 14:14:22;;;;;;;4.97;3.60;;;;;;;;;;5084400;28;20139;-64
2021/09/19 14:17:07;;;;;;;7.47;3.63;;;;;;;;;;5091587;28;20418;-65
2021/09/19 14:19:53;;;;;;;4.13;3.47;;;;;;;;;;5092001;28;20119;-64
2021/09/19 14:22:38;;;;;;;5.68;3.53;;;;;;;;;;5091653;28;20052;-64
2021/09/19 14:25:25;;;;;;;4.43;3.42;;;;;;;;;;5091310;28;20044;-64
2021/09/19 14:28:10;;;;;;;5.25;2.95;;;;;;;;;;5091602;28;20055;-64
2021/09/19 14:30:55;;;;;;;5.20;3.45;;;;;;;;;;5092036;28;20040;-64
2021/09/19 14:33:41;;;;;;;4.55;3.28;;;;;;;;;;5091170;28;20043;-64
2021/09/19 14:36:26;;;;;;;6.65;3.47;;;;;;;;;;5091431;28;20051;-64
2021/09/19 14:39:12;;;;;;;8.07;3.55;;;;;;;;;;5091464;28;20060;-65
2021/09/19 14:41:57;;;;;;;4.38;3.78;;;;;;;;;;5092062;28;20065;-64
2021/09/19 14:44:42;;;;;;;4.90;3.13;;;;;;;;;;5080520;28;20048;-65
2021/09/19 14:47:29;;;;;;;3.72;2.83;;;;;;;;;;5090678;28;20064;-65
2021/09/19 14:50:14;;;;;;;4.60;2.97;;;;;;;;;;5090436;28;20052;-65
2021/09/19 14:53:00;;;;;;;3.22;2.88;;;;;;;;;;5091260;28;20048;-65
2021/09/19 14:55:45;;;;;;;4.13;3.00;;;;;;;;;;5090519;28;20048;-64
2021/09/19 14:58:30;;;;;;;4.32;3.83;;;;;;;;;;5075793;28;20510;-64
2021/09/19 15:01:15;;;;;;;3.28;2.95;;;;;;;;;;5091424;28;20052;-66
2021/09/19 15:04:01;;;;;;;3.50;3.20;;;;;;;;;;5085214;28;20052;-65
2021/09/19 15:06:46;;;;;;;3.05;2.72;;;;;;;;;;5091267;28;20047;-64
2021/09/19 15:09:31;;;;;;;5.15;2.90;;;;;;;;;;5090988;28;20048;-65
2021/09/19 15:12:16;;;;;;;2.75;2.53;;;;;;;;;;5091735;28;20052;-65
2021/09/19 15:15:02;;;;;;;3.17;2.85;;;;;;;;;;5084545;28;20691;-65
2021/09/19 15:17:48;;;;;;;3.47;2.50;;;;;;;;;;5091526;28;20048;-65
2021/09/19 15:20:33;;;;;;;4.60;3.13;;;;;;;;;;5091277;28;20052;-65
2021/09/19 15:23:18;;;;;;;3.85;2.60;;;;;;;;;;5091299;28;20059;-65
2021/09/19 15:26:04;;;;;;;5.55;2.63;;;;;;;;;;5086487;28;20448;-65
2021/09/19 15:28:49;;;;;;;3.97;2.78;;;;;;;;;;5093643;28;20046;-64
2021/09/19 15:31:35;;;;;;;3.72;2.30;;;;;;;;;;5095224;28;20572;-64
2021/09/19 15:34:20;;;;;;;4.00;3.05;;;;;;;;;;5095254;28;20606;-64
2021/09/19 15:37:06;;;;;;;3.40;2.50;;;;;;;;;;5087690;28;20115;-65
2021/09/19 15:39:51;;;;;;;4.72;2.92;;;;;;;;;;5095119;28;20413;-64
2021/09/19 15:42:38;;;;;;;3.20;2.90;;;;;;;;;;5095487;28;20048;-64
2021/09/19 15:45:23;;;;;;;3.20;2.90;;;;;;;;;;5089252;28;20120;-64
2021/09/19 15:48:09;;;;;;;3.47;2.53;;;;;;;;;;5086433;28;20664;-64
2021/09/19 15:50:54;;;;;;;3.10;2.15;;;;;;;;;;5094714;28;20052;-65
2021/09/19 15:53:39;;;;;;;4.13;2.33;;;;;;;;;;5094734;28;20048;-64
2021/09/19 15:56:24;;;;;;;3.08;2.63;;;;;;;;;;5094360;28;20055;-64
2021/09/19 15:59:10;;;;;;;3.08;2.58;;;;;;;;;;5094429;28;20100;-64
2021/09/19 16:01:59;;;;;;;4.63;2.88;;;;;;;;;;5094469;28;20044;-64
2021/09/19 16:04:45;;;;;;;3.67;2.28;;;;;;;;;;5094447;28;20044;-64
2021/09/19 16:07:30;;;;;;;3.55;2.28;;;;;;;;;;5088153;28;20075;-64
2021/09/19 16:10:15;;;;;;;2.20;2.00;;;;;;;;;;5094177;28;20051;-65
2021/09/19 16:13:01;;;;;;;4.10;2.60;;;;;;;;;;5094144;28;20523;-64
2021/09/19 16:15:46;;;;;;;6.78;2.30;;;;;;;;;;5094054;28;20048;-64
2021/09/19 16:18:32;;;;;;;3.13;2.33;;;;;;;;;;5087402;28;20056;-64
2021/09/19 16:21:17;;;;;;;6.35;2.95;;;;;;;;;;5094032;28;20052;-64
2021/09/19 16:24:02;;;;;;;3.75;2.35;;;;;;;;;;5093646;28;20048;-64
2021/09/19 16:26:47;;;;;;;2.65;2.30;;;;;;;;;;5094174;28;20040;-64
2021/09/19 16:29:33;;;;;;;7.82;3.03;;;;;;;;;;5086748;28;20127;-64
2021/09/19 16:32:18;;;;;;;3.58;2.50;;;;;;;;;;5094182;28;20122;-64
2021/09/19 16:35:04;;;;;;;2.67;1.95;;;;;;;;;;5093797;28;20051;-64